logo

United by the hobby
of model aircraft flying

Promoting safe
radio model flying

Sharing the experience
of RC flying

Dedicated to the sport of model aviation

Meeting
Venue

Third Monday Each Month
Crown Point Civic Center
101 S East Street
Crown Point, IN 46307

Read More

email:
[javascript protected email address]

View our events calendar

2019

Weather Conditions

Elev 730 ft    41.19°N  87.16°W

77.0 °F
080°
7 m/h
Wind Variable Wind from East

Current Conditions

Pressure 30.12 in
Visibility 10 miles
Clouds Clear
Dew Point 57.9 °F
Humidity 51 %
Rainfall 0.00 in
 
METAR KVPZ 172256Z AUTO 08006KT 10SM CLR 25/14 A3012 RMK AO2 SLP197 T02500144

Forecast

INFORMATION PROVIDED BY THE INDIANA STATE FORECAST - NATIONAL WEATHER SERVICE
Sunrise & Sunset
September 17, 2019
4:3 AM

4:38 PM
High 74 | Low 53°F
September 18, 2019
4:3 AM

4:38 PM
High | Low °F
 

our gallery

View All